Etusivu
METAR-TAF:

METAR-TAF

Lentoasemat :

Agen, Ranska

Leveyspiiri: 44-11N, Pituuspiiri: 000-36E, korkeus merenpinnasta: 61 m

Tämänhetkinen sää

Tämä raportti tehtiin 35 minuuttia sitten, kello 09.00 UTC
Tuuli 8 kn lännestä, vaihdellen lounaan ja lännen/luoteen välillä
Lämpötila 8°C
Kosteus 93%
Ilmanpaine 1034 hPa
Näkyvyys 10 km tai enemmän
Muutamia pilviä 3500 ft:n korkeudessa

METAR: LFBA 190900Z AUTO 27008KT 230V300 9999 FEW035 08/07 Q1034 NOSIG

Aika: 10:35 (09:35 UTC)

Sääennuste

Tämä raportti tehtiin 1 tunti ja 35 minuuttia sitten, kello 08.00 UTC
Ennuste voimassa 19. päivästä klo 09 UTC - 19. päivään klo 18 UTC
Tuuli 5 kn lännestä/luoteesta
Näkyvyys 10 km tai enemmän
ei pilviä alle 1500 m:ssä eikä cumulonimbus-pilviä
Ajoittain
19. päivästä klo 09 UTC - 19. päivään klo 15 UTC
Hajanaisia pilviä 1500 ft:n korkeudessa

TAF: LFBA 190800Z 1909/1918 30005KT CAVOK TEMPO 1909/1915 SCT015

Säähavainnot ja -ennusteet yli 4000 lentoasemalta (METAR- ja TAF-raportit).

Käytössä olevat sääasemat on merkitty karttaan keltaisilla ja punaisilla pisteillä.

Aseta hiiri pisteen päälle nähdäksesi sääaseman nimen.

Klikkaa sitten nähdäksesi säähavainnot ja -ennusteet.

Kartan vaihtaminen: klikkaa mustalla rastilla varustettuja vihreitä pisteitä, niin voit zoomata sisään; viivalla varustettua vihreää pistettä, niin voit zoomata ulos tai vihreitä nuolia, niin pääset viereisille kartoille.


METAR-TAF: